sensor_id;sensor_type;location;lat;lon;timestamp;temperature;humidity
66401;HTU21D;53211;45.040;38.788;2022-09-09T00:04:26;10.37;52.54
66401;HTU21D;53211;45.040;38.788;2022-09-09T00:07:20;10.34;52.62
66401;HTU21D;53211;45.040;38.788;2022-09-09T00:09:57;10.29;54.30
66401;HTU21D;53211;45.040;38.788;2022-09-09T00:12:39;10.26;52.98
66401;HTU21D;53211;45.040;38.788;2022-09-09T00:15:19;10.24;52.76
66401;HTU21D;53211;45.040;38.788;2022-09-09T00:23:12;10.15;54.57
66401;HTU21D;53211;45.040;38.788;2022-09-09T00:25:49;10.13;53.84
66401;HTU21D;53211;45.040;38.788;2022-09-09T00:28:22;10.11;56.35
66401;HTU21D;53211;45.040;38.788;2022-09-09T00:30:48;10.07;55.08
66401;HTU21D;53211;45.040;38.788;2022-09-09T00:33:18;10.08;54.35
66401;HTU21D;53211;45.040;38.788;2022-09-09T00:35:50;10.07;59.17
66401;HTU21D;53211;45.040;38.788;2022-09-09T00:38:25;10.06;55.39
66401;HTU21D;53211;45.040;38.788;2022-09-09T00:40:58;10.06;54.16
66401;HTU21D;53211;45.040;38.788;2022-09-09T00:43:32;10.06;53.84
66401;HTU21D;53211;45.040;38.788;2022-09-09T00:48:38;10.03;53.93
66401;HTU21D;53211;45.040;38.788;2022-09-09T00:51:22;10.01;53.66
66401;HTU21D;53211;45.040;38.788;2022-09-09T00:57:26;9.99;53.60
66401;HTU21D;53211;45.040;38.788;2022-09-09T01:00:17;10.00;53.62
66401;HTU21D;53211;45.040;38.788;2022-09-09T01:05:35;10.00;53.72
66401;HTU21D;53211;45.040;38.788;2022-09-09T01:08:05;9.98;54.14
66401;HTU21D;53211;45.040;38.788;2022-09-09T01:13:15;9.93;60.59
66401;HTU21D;53211;45.040;38.788;2022-09-09T01:15:44;9.91;58.42
66401;HTU21D;53211;45.040;38.788;2022-09-09T01:18:16;9.90;55.67
66401;HTU21D;53211;45.040;38.788;2022-09-09T01:20:50;9.88;54.79
66401;HTU21D;53211;45.040;38.788;2022-09-09T01:28:51;9.83;55.74
66401;HTU21D;53211;45.040;38.788;2022-09-09T01:31:26;9.79;54.62
66401;HTU21D;53211;45.040;38.788;2022-09-09T01:33:53;9.78;54.42
66401;HTU21D;53211;45.040;38.788;2022-09-09T01:36:46;9.76;55.13
66401;HTU21D;53211;45.040;38.788;2022-09-09T01:39:13;9.76;54.85
66401;HTU21D;53211;45.040;38.788;2022-09-09T01:41:41;9.72;55.07
66401;HTU21D;53211;45.040;38.788;2022-09-09T01:44:11;9.71;54.98
66401;HTU21D;53211;45.040;38.788;2022-09-09T01:46:38;9.69;54.84
66401;HTU21D;53211;45.040;38.788;2022-09-09T01:49:09;9.67;54.85
66401;HTU21D;53211;45.040;38.788;2022-09-09T01:51:37;9.67;54.50
66401;HTU21D;53211;45.040;38.788;2022-09-09T01:54:07;9.66;54.38
66401;HTU21D;53211;45.040;38.788;2022-09-09T01:59:31;9.64;54.71
66401;HTU21D;53211;45.040;38.788;2022-09-09T02:02:18;9.63;54.64
66401;HTU21D;53211;45.040;38.788;2022-09-09T02:05:07;0.00;54.64
66401;HTU21D;53211;45.040;38.788;2022-09-09T02:07:41;9.61;54.56
66401;HTU21D;53211;45.040;38.788;2022-09-09T02:13:09;9.61;54.64
66401;HTU21D;53211;45.040;38.788;2022-09-09T02:15:53;9.59;54.55
66401;HTU21D;53211;45.040;38.788;2022-09-09T02:18:30;9.57;54.63
66401;HTU21D;53211;45.040;38.788;2022-09-09T02:20:58;9.59;54.48
66401;HTU21D;53211;45.040;38.788;2022-09-09T02:23:25;9.59;54.52
66401;HTU21D;53211;45.040;38.788;2022-09-09T02:25:55;9.59;54.73
66401;HTU21D;53211;45.040;38.788;2022-09-09T02:28:28;9.60;54.96
66401;HTU21D;53211;45.040;38.788;2022-09-09T02:30:55;0.00;55.49
66401;HTU21D;53211;45.040;38.788;2022-09-09T02:33:30;9.57;56.57
66401;HTU21D;53211;45.040;38.788;2022-09-09T02:36:01;9.56;55.90
66401;HTU21D;53211;45.040;38.788;2022-09-09T02:38:34;9.53;58.51
66401;HTU21D;53211;45.040;38.788;2022-09-09T02:41:08;9.50;57.85
66401;HTU21D;53211;45.040;38.788;2022-09-09T02:43:35;9.51;57.90
66401;HTU21D;53211;45.040;38.788;2022-09-09T02:49:33;9.52;55.71
66401;HTU21D;53211;45.040;38.788;2022-09-09T02:52:08;9.53;55.74
66401;HTU21D;53211;45.040;38.788;2022-09-09T02:54:41;9.52;55.68
66401;HTU21D;53211;45.040;38.788;2022-09-09T02:57:16;9.50;55.39
66401;HTU21D;53211;45.040;38.788;2022-09-09T02:59:47;9.51;55.66
66401;HTU21D;53211;45.040;38.788;2022-09-09T03:02:13;9.50;57.84
66401;HTU21D;53211;45.040;38.788;2022-09-09T03:04:41;9.50;57.83
66401;HTU21D;53211;45.040;38.788;2022-09-09T03:07:13;9.51;56.16
66401;HTU21D;53211;45.040;38.788;2022-09-09T03:09:41;9.51;56.16
66401;HTU21D;53211;45.040;38.788;2022-09-09T03:12:07;9.53;55.80
66401;HTU21D;53211;45.040;38.788;2022-09-09T03:14:34;9.54;55.83
66401;HTU21D;53211;45.040;38.788;2022-09-09T03:17:00;9.56;55.77
66401;HTU21D;53211;45.040;38.788;2022-09-09T03:19:32;9.57;55.79
66401;HTU21D;53211;45.040;38.788;2022-09-09T03:21:59;9.60;55.74
66401;HTU21D;53211;45.040;38.788;2022-09-09T03:24:27;9.61;55.74
66401;HTU21D;53211;45.040;38.788;2022-09-09T03:26:53;9.65;55.77
66401;HTU21D;53211;45.040;38.788;2022-09-09T03:29:21;9.67;55.76
66401;HTU21D;53211;45.040;38.788;2022-09-09T03:31:48;9.68;55.95
66401;HTU21D;53211;45.040;38.788;2022-09-09T03:34:14;9.69;56.07
66401;HTU21D;53211;45.040;38.788;2022-09-09T03:36:40;9.74;56.32
66401;HTU21D;53211;45.040;38.788;2022-09-09T03:39:09;9.78;56.30
66401;HTU21D;53211;45.040;38.788;2022-09-09T03:41:36;9.82;58.91
66401;HTU21D;53211;45.040;38.788;2022-09-09T03:44:04;9.89;57.81
66401;HTU21D;53211;45.040;38.788;2022-09-09T03:46:34;9.94;57.24
66401;HTU21D;53211;45.040;38.788;2022-09-09T03:49:01;10.03;57.16
66401;HTU21D;53211;45.040;38.788;2022-09-09T03:51:30;10.09;56.96
66401;HTU21D;53211;45.040;38.788;2022-09-09T03:53:56;10.16;56.84
66401;HTU21D;53211;45.040;38.788;2022-09-09T03:56:25;10.23;58.05
66401;HTU21D;53211;45.040;38.788;2022-09-09T03:58:52;10.31;57.19
66401;HTU21D;53211;45.040;38.788;2022-09-09T04:01:18;10.40;58.13
66401;HTU21D;53211;45.040;38.788;2022-09-09T04:03:45;10.51;57.67
66401;HTU21D;53211;45.040;38.788;2022-09-09T04:06:13;10.62;59.76
66401;HTU21D;53211;45.040;38.788;2022-09-09T04:08:42;10.73;61.42
66401;HTU21D;53211;45.040;38.788;2022-09-09T04:11:08;10.87;60.85
66401;HTU21D;53211;45.040;38.788;2022-09-09T04:13:37;11.01;64.49
66401;HTU21D;53211;45.040;38.788;2022-09-09T04:16:08;0.00;61.89
66401;HTU21D;53211;45.040;38.788;2022-09-09T04:18:36;11.23;58.19
66401;HTU21D;53211;45.040;38.788;2022-09-09T04:21:03;11.33;57.54
66401;HTU21D;53211;45.040;38.788;2022-09-09T04:23:31;11.41;57.41
66401;HTU21D;53211;45.040;38.788;2022-09-09T04:26:00;11.49;57.67
66401;HTU21D;53211;45.040;38.788;2022-09-09T04:28:29;11.58;58.57
66401;HTU21D;53211;45.040;38.788;2022-09-09T04:30:57;11.72;62.31
66401;HTU21D;53211;45.040;38.788;2022-09-09T04:33:24;11.85;62.32
66401;HTU21D;53211;45.040;38.788;2022-09-09T04:35:53;11.96;60.47
66401;HTU21D;53211;45.040;38.788;2022-09-09T04:38:21;12.10;58.67
66401;HTU21D;53211;45.040;38.788;2022-09-09T04:40:50;12.22;57.93
66401;HTU21D;53211;45.040;38.788;2022-09-09T04:43:17;12.33;68.13
66401;HTU21D;53211;45.040;38.788;2022-09-09T04:45:49;12.49;62.05
66401;HTU21D;53211;45.040;38.788;2022-09-09T04:48:17;12.61;59.81
66401;HTU21D;53211;45.040;38.788;2022-09-09T04:50:43;12.74;59.99
66401;HTU21D;53211;45.040;38.788;2022-09-09T04:53:11;12.88;58.68
66401;HTU21D;53211;45.040;38.788;2022-09-09T04:55:38;13.00;58.36
66401;HTU21D;53211;45.040;38.788;2022-09-09T04:58:05;13.10;61.14
66401;HTU21D;53211;45.040;38.788;2022-09-09T05:00:33;13.23;60.46
66401;HTU21D;53211;45.040;38.788;2022-09-09T05:03:05;13.40;62.69
66401;HTU21D;53211;45.040;38.788;2022-09-09T05:05:33;13.52;61.76
66401;HTU21D;53211;45.040;38.788;2022-09-09T05:08:04;13.66;59.03
66401;HTU21D;53211;45.040;38.788;2022-09-09T05:10:31;13.80;58.45
66401;HTU21D;53211;45.040;38.788;2022-09-09T05:12:58;13.95;58.71
66401;HTU21D;53211;45.040;38.788;2022-09-09T05:15:26;14.11;61.37
66401;HTU21D;53211;45.040;38.788;2022-09-09T05:17:57;14.25;61.35
66401;HTU21D;53211;45.040;38.788;2022-09-09T05:20:24;14.36;60.09
66401;HTU21D;53211;45.040;38.788;2022-09-09T05:22:55;14.51;59.31
66401;HTU21D;53211;45.040;38.788;2022-09-09T05:25:25;14.66;58.53
66401;HTU21D;53211;45.040;38.788;2022-09-09T05:27:53;14.80;57.84
66401;HTU21D;53211;45.040;38.788;2022-09-09T05:30:20;14.92;57.64
66401;HTU21D;53211;45.040;38.788;2022-09-09T05:32:48;15.01;57.49
66401;HTU21D;53211;45.040;38.788;2022-09-09T05:35:19;15.13;57.38
66401;HTU21D;53211;45.040;38.788;2022-09-09T05:37:45;15.23;57.31
66401;HTU21D;53211;45.040;38.788;2022-09-09T05:40:12;15.33;66.49
66401;HTU21D;53211;45.040;38.788;2022-09-09T05:42:39;15.49;60.92
66401;HTU21D;53211;45.040;38.788;2022-09-09T05:45:07;15.65;58.40
66401;HTU21D;53211;45.040;38.788;2022-09-09T05:47:34;15.78;57.71
66401;HTU21D;53211;45.040;38.788;2022-09-09T05:50:00;15.91;57.44
66401;HTU21D;53211;45.040;38.788;2022-09-09T05:52:26;16.03;57.07
66401;HTU21D;53211;45.040;38.788;2022-09-09T05:54:54;16.14;58.25
66401;HTU21D;53211;45.040;38.788;2022-09-09T05:57:22;16.28;57.41
66401;HTU21D;53211;45.040;38.788;2022-09-09T05:59:50;16.44;56.97
66401;HTU21D;53211;45.040;38.788;2022-09-09T06:02:16;16.56;56.58
66401;HTU21D;53211;45.040;38.788;2022-09-09T06:04:42;16.69;56.83
66401;HTU21D;53211;45.040;38.788;2022-09-09T06:07:08;16.81;60.14
66401;HTU21D;53211;45.040;38.788;2022-09-09T06:09:35;16.96;56.84
66401;HTU21D;53211;45.040;38.788;2022-09-09T06:12:01;17.11;56.30
66401;HTU21D;53211;45.040;38.788;2022-09-09T06:14:50;17.21;56.81
66401;HTU21D;53211;45.040;38.788;2022-09-09T06:17:18;17.30;56.18
66401;HTU21D;53211;45.040;38.788;2022-09-09T06:19:44;17.39;55.87
66401;HTU21D;53211;45.040;38.788;2022-09-09T06:22:11;17.50;55.82
66401;HTU21D;53211;45.040;38.788;2022-09-09T06:24:38;17.60;55.94
66401;HTU21D;53211;45.040;38.788;2022-09-09T06:27:06;17.76;55.60
66401;HTU21D;53211;45.040;38.788;2022-09-09T06:29:34;17.88;55.24
66401;HTU21D;53211;45.040;38.788;2022-09-09T06:32:02;17.99;55.57
66401;HTU21D;53211;45.040;38.788;2022-09-09T06:34:28;18.12;54.89
66401;HTU21D;53211;45.040;38.788;2022-09-09T06:36:56;18.26;54.84
66401;HTU21D;53211;45.040;38.788;2022-09-09T06:39:25;18.36;54.23
66401;HTU21D;53211;45.040;38.788;2022-09-09T06:41:51;18.48;54.25
66401;HTU21D;53211;45.040;38.788;2022-09-09T06:44:37;18.62;53.94
66401;HTU21D;53211;45.040;38.788;2022-09-09T06:47:06;18.65;54.20
66401;HTU21D;53211;45.040;38.788;2022-09-09T06:49:33;18.74;54.04
66401;HTU21D;53211;45.040;38.788;2022-09-09T06:52:03;18.84;53.94
66401;HTU21D;53211;45.040;38.788;2022-09-09T06:54:30;18.96;53.86
66401;HTU21D;53211;45.040;38.788;2022-09-09T06:56:57;19.03;53.93
66401;HTU21D;53211;45.040;38.788;2022-09-09T06:59:24;19.08;0.00
66401;HTU21D;53211;45.040;38.788;2022-09-09T07:01:54;19.16;53.61
66401;HTU21D;53211;45.040;38.788;2022-09-09T07:04:21;19.25;53.46
66401;HTU21D;53211;45.040;38.788;2022-09-09T07:06:47;19.32;53.45
66401;HTU21D;53211;45.040;38.788;2022-09-09T07:09:18;19.43;53.35
66401;HTU21D;53211;45.040;38.788;2022-09-09T07:11:51;19.52;53.31
66401;HTU21D;53211;45.040;38.788;2022-09-09T07:14:20;19.62;53.21
66401;HTU21D;53211;45.040;38.788;2022-09-09T07:16:51;19.72;53.02
66401;HTU21D;53211;45.040;38.788;2022-09-09T07:19:18;19.81;52.74
66401;HTU21D;53211;45.040;38.788;2022-09-09T07:21:47;19.90;52.65
66401;HTU21D;53211;45.040;38.788;2022-09-09T07:24:17;19.97;52.56
66401;HTU21D;53211;45.040;38.788;2022-09-09T07:26:43;20.02;52.38
66401;HTU21D;53211;45.040;38.788;2022-09-09T07:29:11;20.11;52.22
66401;HTU21D;53211;45.040;38.788;2022-09-09T07:31:41;20.17;50.63
66401;HTU21D;53211;45.040;38.788;2022-09-09T07:34:12;20.26;51.75
66401;HTU21D;53211;45.040;38.788;2022-09-09T07:36:40;20.34;50.53
66401;HTU21D;53211;45.040;38.788;2022-09-09T07:39:26;20.44;50.80
66401;HTU21D;53211;45.040;38.788;2022-09-09T07:41:53;20.53;51.08
66401;HTU21D;53211;45.040;38.788;2022-09-09T07:44:24;20.55;49.97
66401;HTU21D;53211;45.040;38.788;2022-09-09T07:47:06;20.77;51.12
66401;HTU21D;53211;45.040;38.788;2022-09-09T07:49:38;20.99;48.02
66401;HTU21D;53211;45.040;38.788;2022-09-09T07:52:05;21.18;49.73
66401;HTU21D;53211;45.040;38.788;2022-09-09T07:54:32;21.31;48.34
66401;HTU21D;53211;45.040;38.788;2022-09-09T07:57:11;21.33;47.86
66401;HTU21D;53211;45.040;38.788;2022-09-09T07:59:38;21.33;48.76
66401;HTU21D;53211;45.040;38.788;2022-09-09T08:02:24;21.29;49.08
66401;HTU21D;53211;45.040;38.788;2022-09-09T08:04:51;21.29;49.34
66401;HTU21D;53211;45.040;38.788;2022-09-09T08:07:19;21.30;49.11
66401;HTU21D;53211;45.040;38.788;2022-09-09T08:09:52;21.30;48.88
66401;HTU21D;53211;45.040;38.788;2022-09-09T08:12:24;21.30;48.02
66401;HTU21D;53211;45.040;38.788;2022-09-09T08:14:51;21.32;48.54
66401;HTU21D;53211;45.040;38.788;2022-09-09T08:17:17;21.33;46.79
66401;HTU21D;53211;45.040;38.788;2022-09-09T08:19:43;21.40;48.70
66401;HTU21D;53211;45.040;38.788;2022-09-09T08:22:15;21.47;48.78
66401;HTU21D;53211;45.040;38.788;2022-09-09T08:24:41;21.53;47.63
66401;HTU21D;53211;45.040;38.788;2022-09-09T08:27:08;21.60;47.53
66401;HTU21D;53211;45.040;38.788;2022-09-09T08:29:36;21.65;47.94
66401;HTU21D;53211;45.040;38.788;2022-09-09T08:32:04;21.70;46.59
66401;HTU21D;53211;45.040;38.788;2022-09-09T08:34:31;21.79;47.71
66401;HTU21D;53211;45.040;38.788;2022-09-09T08:37:00;21.84;47.48
66401;HTU21D;53211;45.040;38.788;2022-09-09T08:39:34;21.90;45.28
66401;HTU21D;53211;45.040;38.788;2022-09-09T08:47:46;22.05;43.74
66401;HTU21D;53211;45.040;38.788;2022-09-09T08:50:29;22.07;40.91
66401;HTU21D;53211;45.040;38.788;2022-09-09T08:53:17;22.19;42.45
66401;HTU21D;53211;45.040;38.788;2022-09-09T08:55:56;22.25;40.61
66401;HTU21D;53211;45.040;38.788;2022-09-09T08:58:55;22.33;44.90
66401;HTU21D;53211;45.040;38.788;2022-09-09T09:01:51;22.34;45.22
66401;HTU21D;53211;45.040;38.788;2022-09-09T09:04:43;22.35;45.48
66401;HTU21D;53211;45.040;38.788;2022-09-09T09:11:08;22.40;40.75
66401;HTU21D;53211;45.040;38.788;2022-09-09T09:13:50;22.43;42.17
66401;HTU21D;53211;45.040;38.788;2022-09-09T09:16:34;22.46;41.85
66401;HTU21D;53211;45.040;38.788;2022-09-09T09:19:05;22.49;42.65
66401;HTU21D;53211;45.040;38.788;2022-09-09T09:21:48;22.51;41.76
66401;HTU21D;53211;45.040;38.788;2022-09-09T09:24:23;22.57;41.56
66401;HTU21D;53211;45.040;38.788;2022-09-09T09:26:51;22.63;42.15
66401;HTU21D;53211;45.040;38.788;2022-09-09T09:29:20;22.69;41.96
66401;HTU21D;53211;45.040;38.788;2022-09-09T09:31:52;22.75;41.77
66401;HTU21D;53211;45.040;38.788;2022-09-09T09:34:22;22.78;39.97
66401;HTU21D;53211;45.040;38.788;2022-09-09T09:36:59;22.77;38.01
66401;HTU21D;53211;45.040;38.788;2022-09-09T09:39:33;22.82;39.00
66401;HTU21D;53211;45.040;38.788;2022-09-09T09:42:22;22.92;40.59
66401;HTU21D;53211;45.040;38.788;2022-09-09T09:44:50;22.95;42.19
66401;HTU21D;53211;45.040;38.788;2022-09-09T09:47:23;22.96;41.95
66401;HTU21D;53211;45.040;38.788;2022-09-09T09:50:17;22.99;38.40
66401;HTU21D;53211;45.040;38.788;2022-09-09T09:52:56;23.10;41.78
66401;HTU21D;53211;45.040;38.788;2022-09-09T09:55:24;23.16;40.43
66401;HTU21D;53211;45.040;38.788;2022-09-09T09:57:52;23.22;39.80
66401;HTU21D;53211;45.040;38.788;2022-09-09T10:03:27;23.41;33.45
66401;HTU21D;53211;45.040;38.788;2022-09-09T10:05:55;23.55;40.55
66401;HTU21D;53211;45.040;38.788;2022-09-09T10:08:26;23.61;38.45
66401;HTU21D;53211;45.040;38.788;2022-09-09T10:10:56;23.73;40.43
66401;HTU21D;53211;45.040;38.788;2022-09-09T10:19:03;24.03;32.75
66401;HTU21D;53211;45.040;38.788;2022-09-09T10:22:13;24.17;33.05
66401;HTU21D;53211;45.040;38.788;2022-09-09T10:30:40;24.51;40.40
66401;HTU21D;53211;45.040;38.788;2022-09-09T10:33:44;24.92;41.52
66401;HTU21D;53211;45.040;38.788;2022-09-09T10:36:22;26.20;35.03
66401;HTU21D;53211;45.040;38.788;2022-09-09T10:39:39;27.47;30.10
66401;HTU21D;53211;45.040;38.788;2022-09-09T10:42:12;28.06;27.16
66401;HTU21D;53211;45.040;38.788;2022-09-09T10:47:53;28.98;33.08
66401;HTU21D;53211;45.040;38.788;2022-09-09T10:50:37;29.80;33.96
66401;HTU21D;53211;45.040;38.788;2022-09-09T10:55:39;32.18;32.89
66401;HTU21D;53211;45.040;38.788;2022-09-09T10:58:09;33.31;32.17
66401;HTU21D;53211;45.040;38.788;2022-09-09T11:03:02;35.13;29.08
66401;HTU21D;53211;45.040;38.788;2022-09-09T11:05:41;35.43;27.73
66401;HTU21D;53211;45.040;38.788;2022-09-09T11:08:24;35.49;26.03
66401;HTU21D;53211;45.040;38.788;2022-09-09T11:16:10;35.52;17.54
66401;HTU21D;53211;45.040;38.788;2022-09-09T11:18:39;35.36;24.77
66401;HTU21D;53211;45.040;38.788;2022-09-09T11:21:06;35.28;19.39
66401;HTU21D;53211;45.040;38.788;2022-09-09T11:26:03;35.65;25.34
66401;HTU21D;53211;45.040;38.788;2022-09-09T11:36:26;36.63;24.20
66401;HTU21D;53211;45.040;38.788;2022-09-09T11:41:34;37.50;23.14
66401;HTU21D;53211;45.040;38.788;2022-09-09T11:44:08;37.71;24.21
66401;HTU21D;53211;45.040;38.788;2022-09-09T11:46:36;37.76;18.28
66401;HTU21D;53211;45.040;38.788;2022-09-09T11:49:04;37.82;24.93
66401;HTU21D;53211;45.040;38.788;2022-09-09T11:51:31;38.38;25.68
66401;HTU21D;53211;45.040;38.788;2022-09-09T11:53:58;39.09;24.74
66401;HTU21D;53211;45.040;38.788;2022-09-09T11:56:28;39.52;16.77
66401;HTU21D;53211;45.040;38.788;2022-09-09T12:06:54;38.50;14.88
66401;HTU21D;53211;45.040;38.788;2022-09-09T12:09:22;38.18;17.10
66401;HTU21D;53211;45.040;38.788;2022-09-09T12:11:51;37.87;20.56
66401;HTU21D;53211;45.040;38.788;2022-09-09T12:19:40;38.30;21.02
66401;HTU21D;53211;45.040;38.788;2022-09-09T12:24:48;39.15;17.10
66401;HTU21D;53211;45.040;38.788;2022-09-09T12:27:19;38.80;20.93
66401;HTU21D;53211;45.040;38.788;2022-09-09T12:29:52;38.80;21.95
66401;HTU21D;53211;45.040;38.788;2022-09-09T12:32:22;38.94;20.20
66401;HTU21D;53211;45.040;38.788;2022-09-09T12:34:52;38.60;19.56
66401;HTU21D;53211;45.040;38.788;2022-09-09T12:39:57;38.53;14.97
66401;HTU21D;53211;45.040;38.788;2022-09-09T12:42:25;38.03;14.63
66401;HTU21D;53211;45.040;38.788;2022-09-09T12:44:58;36.36;16.74
66401;HTU21D;53211;45.040;38.788;2022-09-09T12:47:30;35.51;17.18
66401;HTU21D;53211;45.040;38.788;2022-09-09T12:49:57;34.97;19.86
66401;HTU21D;53211;45.040;38.788;2022-09-09T12:52:32;34.99;22.02
66401;HTU21D;53211;45.040;38.788;2022-09-09T12:55:03;35.13;20.28
66401;HTU21D;53211;45.040;38.788;2022-09-09T12:57:38;35.42;22.43
66401;HTU21D;53211;45.040;38.788;2022-09-09T13:00:05;36.26;22.76
66401;HTU21D;53211;45.040;38.788;2022-09-09T13:02:32;37.10;16.88
66401;HTU21D;53211;45.040;38.788;2022-09-09T13:05:06;37.28;18.08
66401;HTU21D;53211;45.040;38.788;2022-09-09T13:07:32;36.52;19.46
66401;HTU21D;53211;45.040;38.788;2022-09-09T13:09:58;35.42;21.32
66401;HTU21D;53211;45.040;38.788;2022-09-09T13:12:24;34.39;22.96
66401;HTU21D;53211;45.040;38.788;2022-09-09T13:14:54;33.48;23.81
66401;HTU21D;53211;45.040;38.788;2022-09-09T13:17:22;32.60;22.14
66401;HTU21D;53211;45.040;38.788;2022-09-09T13:19:48;31.70;23.69
66401;HTU21D;53211;45.040;38.788;2022-09-09T13:22:39;31.04;25.11
66401;HTU21D;53211;45.040;38.788;2022-09-09T13:27:35;29.86;25.53
66401;HTU21D;53211;45.040;38.788;2022-09-09T13:38:18;27.94;26.86
66401;HTU21D;53211;45.040;38.788;2022-09-09T13:43:21;27.30;27.88
66401;HTU21D;53211;45.040;38.788;2022-09-09T13:45:57;26.87;28.32
66401;HTU21D;53211;45.040;38.788;2022-09-09T13:48:27;26.65;28.97
66401;HTU21D;53211;45.040;38.788;2022-09-09T13:50:58;26.41;29.71
66401;HTU21D;53211;45.040;38.788;2022-09-09T13:53:25;26.34;29.53
66401;HTU21D;53211;45.040;38.788;2022-09-09T13:55:53;26.24;29.49
66401;HTU21D;53211;45.040;38.788;2022-09-09T13:58:25;26.18;29.45
66401;HTU21D;53211;45.040;38.788;2022-09-09T14:00:54;25.99;29.55
66401;HTU21D;53211;45.040;38.788;2022-09-09T14:03:21;26.02;29.84
66401;HTU21D;53211;45.040;38.788;2022-09-09T14:05:47;25.97;29.85
66401;HTU21D;53211;45.040;38.788;2022-09-09T14:08:20;25.90;29.98
66401;HTU21D;53211;45.040;38.788;2022-09-09T14:10:47;25.78;31.15
66401;HTU21D;53211;45.040;38.788;2022-09-09T14:13:13;25.76;30.47
66401;HTU21D;53211;45.040;38.788;2022-09-09T14:15:41;25.66;30.87
66401;HTU21D;53211;45.040;38.788;2022-09-09T14:18:12;25.61;30.71
66401;HTU21D;53211;45.040;38.788;2022-09-09T14:20:39;25.53;30.83
66401;HTU21D;53211;45.040;38.788;2022-09-09T14:23:05;25.46;30.88
66401;HTU21D;53211;45.040;38.788;2022-09-09T14:25:32;25.34;31.46
66401;HTU21D;53211;45.040;38.788;2022-09-09T14:27:59;25.27;31.25
66401;HTU21D;53211;45.040;38.788;2022-09-09T14:30:25;25.17;31.77
66401;HTU21D;53211;45.040;38.788;2022-09-09T14:32:51;25.10;31.45
66401;HTU21D;53211;45.040;38.788;2022-09-09T14:35:17;25.03;31.57
66401;HTU21D;53211;45.040;38.788;2022-09-09T14:37:43;24.92;31.70
66401;HTU21D;53211;45.040;38.788;2022-09-09T14:40:10;24.80;31.77
66401;HTU21D;53211;45.040;38.788;2022-09-09T14:42:36;24.66;33.28
66401;HTU21D;53211;45.040;38.788;2022-09-09T14:45:03;24.59;32.55
66401;HTU21D;53211;45.040;38.788;2022-09-09T14:47:29;24.55;32.37
66401;HTU21D;53211;45.040;38.788;2022-09-09T14:49:55;24.48;32.39
66401;HTU21D;53211;45.040;38.788;2022-09-09T14:52:21;24.36;34.58
66401;HTU21D;53211;45.040;38.788;2022-09-09T14:54:47;24.29;32.65
66401;HTU21D;53211;45.040;38.788;2022-09-09T14:57:13;24.23;32.72
66401;HTU21D;53211;45.040;38.788;2022-09-09T14:59:39;24.14;32.82
66401;HTU21D;53211;45.040;38.788;2022-09-09T15:02:09;24.05;32.97
66401;HTU21D;53211;45.040;38.788;2022-09-09T15:04:35;23.99;32.99
66401;HTU21D;53211;45.040;38.788;2022-09-09T15:07:01;23.86;33.05
66401;HTU21D;53211;45.040;38.788;2022-09-09T15:09:27;23.76;33.09
66401;HTU21D;53211;45.040;38.788;2022-09-09T15:11:53;23.59;33.19
66401;HTU21D;53211;45.040;38.788;2022-09-09T15:14:19;23.43;33.35
66401;HTU21D;53211;45.040;38.788;2022-09-09T15:16:45;23.24;33.51
66401;HTU21D;53211;45.040;38.788;2022-09-09T15:19:11;23.07;33.62
66401;HTU21D;53211;45.040;38.788;2022-09-09T15:21:37;22.87;33.77
66401;HTU21D;53211;45.040;38.788;2022-09-09T15:24:05;22.68;33.92
66401;HTU21D;53211;45.040;38.788;2022-09-09T15:26:32;22.48;34.07
66401;HTU21D;53211;45.040;38.788;2022-09-09T15:28:58;22.26;34.21
66401;HTU21D;53211;45.040;38.788;2022-09-09T15:31:27;22.05;34.41
66401;HTU21D;53211;45.040;38.788;2022-09-09T15:34:01;21.82;34.62
66401;HTU21D;53211;45.040;38.788;2022-09-09T15:36:30;21.61;34.99
66401;HTU21D;53211;45.040;38.788;2022-09-09T15:39:01;21.42;35.22
66401;HTU21D;53211;45.040;38.788;2022-09-09T15:41:29;21.21;35.40
66401;HTU21D;53211;45.040;38.788;2022-09-09T15:43:57;21.06;35.48
66401;HTU21D;53211;45.040;38.788;2022-09-09T15:46:38;20.86;35.60
66401;HTU21D;53211;45.040;38.788;2022-09-09T15:52:01;20.45;35.98
66401;HTU21D;53211;45.040;38.788;2022-09-09T15:54:34;20.22;36.40
66401;HTU21D;53211;45.040;38.788;2022-09-09T15:57:03;20.06;36.47
66401;HTU21D;53211;45.040;38.788;2022-09-09T15:59:30;19.88;36.75
66401;HTU21D;53211;45.040;38.788;2022-09-09T16:01:57;19.70;36.85
66401;HTU21D;53211;45.040;38.788;2022-09-09T16:04:27;19.53;37.11
66401;HTU21D;53211;45.040;38.788;2022-09-09T16:07:00;19.36;37.30
66401;HTU21D;53211;45.040;38.788;2022-09-09T16:09:28;19.21;37.32
66401;HTU21D;53211;45.040;38.788;2022-09-09T16:12:04;19.06;37.72
66401;HTU21D;53211;45.040;38.788;2022-09-09T16:14:35;18.91;38.03
66401;HTU21D;53211;45.040;38.788;2022-09-09T16:17:05;18.79;38.17
66401;HTU21D;53211;45.040;38.788;2022-09-09T16:19:34;18.66;38.58
66401;HTU21D;53211;45.040;38.788;2022-09-09T16:22:03;18.53;38.52
66401;HTU21D;53211;45.040;38.788;2022-09-09T16:24:30;18.41;38.53
66401;HTU21D;53211;45.040;38.788;2022-09-09T16:26:56;18.29;38.88
66401;HTU21D;53211;45.040;38.788;2022-09-09T16:29:23;18.18;38.84
66401;HTU21D;53211;45.040;38.788;2022-09-09T16:31:50;18.08;39.04
66401;HTU21D;53211;45.040;38.788;2022-09-09T16:34:16;17.98;39.10
66401;HTU21D;53211;45.040;38.788;2022-09-09T16:36:44;17.90;39.65
66401;HTU21D;53211;45.040;38.788;2022-09-09T16:39:13;17.79;39.52
66401;HTU21D;53211;45.040;38.788;2022-09-09T16:41:40;17.69;39.62
66401;HTU21D;53211;45.040;38.788;2022-09-09T16:44:11;17.59;40.06
66401;HTU21D;53211;45.040;38.788;2022-09-09T16:46:42;17.50;40.24
66401;HTU21D;53211;45.040;38.788;2022-09-09T16:49:11;17.40;40.53
66401;HTU21D;53211;45.040;38.788;2022-09-09T16:51:46;17.33;40.54
66401;HTU21D;53211;45.040;38.788;2022-09-09T16:54:13;17.25;40.52
66401;HTU21D;53211;45.040;38.788;2022-09-09T16:56:42;17.17;40.37
66401;HTU21D;53211;45.040;38.788;2022-09-09T16:59:14;17.10;40.53
66401;HTU21D;53211;45.040;38.788;2022-09-09T17:01:41;17.04;41.33
66401;HTU21D;53211;45.040;38.788;2022-09-09T17:04:12;16.96;44.83
66401;HTU21D;53211;45.040;38.788;2022-09-09T17:06:39;16.90;41.44
66401;HTU21D;53211;45.040;38.788;2022-09-09T17:09:11;16.85;43.45
66401;HTU21D;53211;45.040;38.788;2022-09-09T17:11:38;16.79;47.02
66401;HTU21D;53211;45.040;38.788;2022-09-09T17:14:06;16.78;43.54
66401;HTU21D;53211;45.040;38.788;2022-09-09T17:16:33;16.78;42.25
66401;HTU21D;53211;45.040;38.788;2022-09-09T17:19:03;16.74;42.62
66401;HTU21D;53211;45.040;38.788;2022-09-09T17:21:31;16.73;42.36
66401;HTU21D;53211;45.040;38.788;2022-09-09T17:23:57;16.69;42.36
66401;HTU21D;53211;45.040;38.788;2022-09-09T17:26:29;16.63;42.31